Time;durP1;ratioP1;P1;durP2;ratioP2;P2;SDS_P1;SDS_P2;PMS_P1;PMS_P2;Temp;Humidity;BMP_temperature;BMP_pressure;BME280_temperature;BME280_humidity;BME280_pressure;Samples;Min_cycle;Max_cycle;Signal;HPM_P1;HPM_P2
2022/05/16 00:01:59;;;;;;;;;;;;;;;;;;6180057;23;19907;-63
2022/05/16 00:04:25;;;;;;;;;;;;;;;;;;6181036;23;20242;-63
2022/05/16 00:06:51;;;;;;;;;;;;;;;;;;6181673;23;19908;-63
2022/05/16 00:09:17;;;;;;;;;;;;;;;;;;6154737;23;19900;-63
2022/05/16 00:11:42;;;;;;;;;;;;;;;;;;6181559;23;20303;-64
2022/05/16 00:14:08;;;;;;;;;;;;;;;;;;6154527;23;19900;-63
2022/05/16 00:16:34;;;;;;;;;;;;;;;;;;6154643;23;20315;-63
2022/05/16 00:19:00;;;;;;;;;;;;;;;;;;6181701;23;20004;-63
2022/05/16 00:21:26;;;;;;;;;;;;;;;;;;6182190;23;19954;-63
2022/05/16 00:27:01;;;;;;;;;;;;;;;;;;6150731;23;19968;-63
2022/05/16 00:29:53;;;;;;;;;;;;;;;;;;6064883;23;19972;-63
2022/05/16 00:32:20;;;;;;;;;;;;;;;;;;6061802;23;19909;-63
2022/05/16 00:34:46;;;;;;;;;;;;;;;;;;6062832;23;19946;-63
2022/05/16 00:37:12;;;;;;;;;;;;;;;;;;6062627;23;19905;-63
2022/05/16 00:39:38;;;;;;;;;;;;;;;;;;6061910;23;19992;-63
2022/05/16 00:42:04;;;;;;;;;;;;;;;;;;6062530;23;19936;-63
2022/05/16 00:44:30;;;;;;;;;;;;;;;;;;6062561;23;20316;-63
2022/05/16 00:46:56;;;;;;;;;;;;;;;;;;6062123;23;19920;-65
2022/05/16 00:49:21;;;;;;;;;;;;;;;;;;6061282;23;19901;-63
2022/05/16 00:51:47;;;;;;;;;;;;;;;;;;6063071;23;19905;-63
2022/05/16 00:54:13;;;;;;;;;;;;;;;;;;6062530;23;19902;-63
2022/05/16 00:56:39;;;;;;;;;;;;;;;;;;6063175;23;19906;-63
2022/05/16 00:59:05;;;;;;;;;;;;;;;;;;6061581;23;19902;-63
2022/05/16 01:07:00;;;;;;;;;;;;;;;;;;6091835;23;20001;-63
2022/05/16 01:09:26;;;;;;;;;;;;;;;;;;6090580;23;20323;-63
2022/05/16 01:11:52;;;;;;;;;;;;;;;;;;6090069;23;19924;-63
2022/05/16 01:14:17;;;;;;;;;;;;;;;;;;6091117;23;19905;-63
2022/05/16 01:16:43;;;;;;;;;;;;;;;;;;6090921;23;19901;-63
2022/05/16 01:19:09;;;;;;;;;;;;;;;;;;6089487;23;20403;-63
2022/05/16 01:21:35;;;;;;;;;;;;;;;;;;6090951;23;19980;-63
2022/05/16 01:24:01;;;;;;;;;;;;;;;;;;6091282;23;19971;-63
2022/05/16 01:26:27;;;;;;;;;;;;;;;;;;6113918;23;19912;-63
2022/05/16 01:28:53;;;;;;;;;;;;;;;;;;6152439;23;19955;-65
2022/05/16 01:31:19;;;;;;;;;;;;;;;;;;6152799;23;19911;-65
2022/05/16 01:33:45;;;;;;;;;;;;;;;;;;6164047;23;19927;-65
2022/05/16 01:36:10;;;;;;;;;;;;;;;;;;6182302;23;19955;-65
2022/05/16 01:38:36;;;;;;;;;;;;;;;;;;6181955;23;19907;-65
2022/05/16 01:41:02;;;;;;;;;;;;;;;;;;6183070;23;19900;-63
2022/05/16 01:43:28;;;;;;;;;;;;;;;;;;6182641;23;19900;-64
2022/05/16 01:45:54;;;;;;;;;;;;;;;;;;6181487;23;19912;-63
2022/05/16 01:48:20;;;;;;;;;;;;;;;;;;6154741;23;19943;-63
2022/05/16 01:50:46;;;;;;;;;;;;;;;;;;6182671;23;19908;-63
2022/05/16 01:53:12;;;;;;;;;;;;;;;;;;6156239;23;19900;-64
2022/05/16 01:55:38;;;;;;;;;;;;;;;;;;6182261;23;19900;-63
2022/05/16 01:58:04;;;;;;;;;;;;;;;;;;6155591;23;19900;-64
2022/05/16 02:00:31;;;;;;;;;;;;;;;;;;6182225;23;20318;-63
2022/05/16 02:02:57;;;;;;;;;;;;;;;;;;6155924;23;19900;-64
2022/05/16 02:05:23;;;;;;;;;;;;;;;;;;6182037;23;19910;-63
2022/05/16 02:07:50;;;;;;;;;;;;;;;;;;6156403;23;20345;-63
2022/05/16 02:10:16;;;;;;;;;;;;;;;;;;6181920;23;19954;-63
2022/05/16 02:12:41;;;;;;;;;;;;;;;;;;6182199;23;20278;-64
2022/05/16 02:15:07;;;;;;;;;;;;;;;;;;6182426;23;20011;-64
2022/05/16 02:17:33;;;;;;;;;;;;;;;;;;6175263;23;19900;-63
2022/05/16 02:19:59;;;;;;;;;;;;;;;;;;6180474;23;19904;-64
2022/05/16 02:25:09;;;;;;;;;;;;;;;;;;6182385;23;19911;-64
2022/05/16 02:27:36;;;;;;;;;;;;;;;;;;6182092;23;19908;-63
2022/05/16 02:30:02;;;;;;;;;;;;;;;;;;6181527;23;19901;-63
2022/05/16 02:35:13;;;;;;;;;;;;;;;;;;6185463;23;19927;-69
2022/05/16 02:37:39;;;;;;;;;;;;;;;;;;6182279;23;19908;-68
2022/05/16 02:40:04;;;;;;;;;;;;;;;;;;6180720;23;20343;-68
2022/05/16 02:42:30;;;;;;;;;;;;;;;;;;6155129;23;19904;-70
2022/05/16 02:44:56;;;;;;;;;;;;;;;;;;6182571;23;19923;-68
2022/05/16 02:47:22;;;;;;;;;;;;;;;;;;6181933;23;19914;-68
2022/05/16 02:49:48;;;;;;;;;;;;;;;;;;6180101;23;20244;-68
2022/05/16 02:52:14;;;;;;;;;;;;;;;;;;6182728;23;19900;-68
2022/05/16 02:54:40;;;;;;;;;;;;;;;;;;6181842;23;19900;-68
2022/05/16 02:57:06;;;;;;;;;;;;;;;;;;6155712;23;20318;-67
2022/05/16 02:59:35;;;;;;;;;;;;;;;;;;6181689;23;19900;-68
2022/05/16 03:02:00;;;;;;;;;;;;;;;;;;6155674;23;19967;-68
2022/05/16 03:04:26;;;;;;;;;;;;;;;;;;6154941;23;19982;-68
2022/05/16 03:06:52;;;;;;;;;;;;;;;;;;6182707;23;19987;-68
2022/05/16 03:09:18;;;;;;;;;;;;;;;;;;6182051;23;19954;-68
2022/05/16 03:11:44;;;;;;;;;;;;;;;;;;6182490;23;19900;-68
2022/05/16 03:14:10;;;;;;;;;;;;;;;;;;6182178;23;20325;-68
2022/05/16 03:16:36;;;;;;;;;;;;;;;;;;6181935;23;20402;-69
2022/05/16 03:19:02;;;;;;;;;;;;;;;;;;6180708;23;19904;-68
2022/05/16 03:21:29;;;;;;;;;;;;;;;;;;6155354;23;19907;-68
2022/05/16 03:23:55;;;;;;;;;;;;;;;;;;6182175;23;19907;-68
2022/05/16 03:26:21;;;;;;;;;;;;;;;;;;6181892;23;19943;-68
2022/05/16 03:28:47;;;;;;;;;;;;;;;;;;6181703;23;20287;-68
2022/05/16 03:31:13;;;;;;;;;;;;;;;;;;6154522;23;20306;-68
2022/05/16 03:33:39;;;;;;;;;;;;;;;;;;6154713;23;19991;-68
2022/05/16 03:36:05;;;;;;;;;;;;;;;;;;6182294;23;19936;-68
2022/05/16 03:41:15;;;;;;;;;;;;;;;;;;6182683;23;19991;-68
2022/05/16 03:43:41;;;;;;;;;;;;;;;;;;6182107;23;19940;-69
2022/05/16 03:46:07;;;;;;;;;;;;;;;;;;6182011;23;20342;-68
2022/05/16 03:48:33;;;;;;;;;;;;;;;;;;6181611;23;19998;-69
2022/05/16 03:50:59;;;;;;;;;;;;;;;;;;6182318;23;19978;-68
2022/05/16 03:53:25;;;;;;;;;;;;;;;;;;6182789;23;19940;-69
2022/05/16 03:55:51;;;;;;;;;;;;;;;;;;6182031;23;19900;-68
2022/05/16 03:58:17;;;;;;;;;;;;;;;;;;6154821;23;19939;-69
2022/05/16 04:00:42;;;;;;;;;;;;;;;;;;6157396;23;19985;-69
2022/05/16 04:03:08;;;;;;;;;;;;;;;;;;6157803;23;19900;-69
2022/05/16 04:05:34;;;;;;;;;;;;;;;;;;6155297;23;19957;-70
2022/05/16 04:08:00;;;;;;;;;;;;;;;;;;6183187;23;19946;-68
2022/05/16 04:10:26;;;;;;;;;;;;;;;;;;6183706;23;19927;-68
2022/05/16 04:12:54;;;;;;;;;;;;;;;;;;6183928;23;19963;-68
2022/05/16 04:15:21;;;;;;;;;;;;;;;;;;6184164;23;20361;-68
2022/05/16 04:17:47;;;;;;;;;;;;;;;;;;6157873;23;19958;-68
2022/05/16 04:20:13;;;;;;;;;;;;;;;;;;6156438;23;20281;-68
2022/05/16 04:22:39;;;;;;;;;;;;;;;;;;6184097;23;19912;-68
2022/05/16 04:25:04;;;;;;;;;;;;;;;;;;6157312;23;19900;-68
2022/05/16 04:27:30;;;;;;;;;;;;;;;;;;6183856;23;20227;-67
2022/05/16 04:29:56;;;;;;;;;;;;;;;;;;6156626;23;19900;-68
2022/05/16 04:32:22;;;;;;;;;;;;;;;;;;6183992;23;19914;-68
2022/05/16 04:34:48;;;;;;;;;;;;;;;;;;6183525;23;20222;-68
2022/05/16 04:37:14;;;;;;;;;;;;;;;;;;6157395;23;19915;-68
2022/05/16 04:39:40;;;;;;;;;;;;;;;;;;6156795;23;19900;-68
2022/05/16 04:44:51;;;;;;;;;;;;;;;;;;6183513;23;20239;-68
2022/05/16 04:47:17;;;;;;;;;;;;;;;;;;6183046;23;19908;-69
2022/05/16 04:49:43;;;;;;;;;;;;;;;;;;6182501;23;20349;-68
2022/05/16 04:52:11;;;;;;;;;;;;;;;;;;6183485;23;19932;-69
2022/05/16 04:54:37;;;;;;;;;;;;;;;;;;6183451;23;19907;-68
2022/05/16 04:57:02;;;;;;;;;;;;;;;;;;6156729;23;20242;-68
2022/05/16 04:59:28;;;;;;;;;;;;;;;;;;6182704;23;19900;-68
2022/05/16 05:01:55;;;;;;;;;;;;;;;;;;6182985;23;19900;-69
2022/05/16 05:04:21;;;;;;;;;;;;;;;;;;6183103;23;19975;-69
2022/05/16 05:06:47;;;;;;;;;;;;;;;;;;6181681;23;19939;-68
2022/05/16 05:09:13;;;;;;;;;;;;;;;;;;6156313;23;19947;-68
2022/05/16 05:14:32;;;;;;;;;;;;;;;;;;6182630;23;19928;-69
2022/05/16 05:16:58;;;;;;;;;;;;;;;;;;6182562;23;19900;-68
2022/05/16 05:19:24;;;;;;;;;;;;;;;;;;6155988;23;19900;-68
2022/05/16 05:21:50;;;;;;;;;;;;;;;;;;6156235;23;19900;-68
2022/05/16 05:24:16;;;;;;;;;;;;;;;;;;6183025;23;19979;-69
2022/05/16 05:35:02;;;;;;;;;;;;;;;;;;6185930;23;19911;-68
2022/05/16 05:37:28;;;;;;;;;;;;;;;;;;6182876;23;19908;-68
2022/05/16 05:39:54;;;;;;;;;;;;;;;;;;6182847;23;20265;-68
2022/05/16 05:42:20;;;;;;;;;;;;;;;;;;6182355;23;19900;-69
2022/05/16 05:44:46;;;;;;;;;;;;;;;;;;6182851;23;19923;-69
2022/05/16 05:47:12;;;;;;;;;;;;;;;;;;6183375;23;19962;-69
2022/05/16 05:49:38;;;;;;;;;;;;;;;;;;6180326;23;20079;-69
2022/05/16 05:52:04;;;;;;;;;;;;;;;;;;6182471;23;20211;-68
2022/05/16 05:54:29;;;;;;;;;;;;;;;;;;6182761;23;20219;-69
2022/05/16 05:56:55;;;;;;;;;;;;;;;;;;6182628;23;19900;-69
2022/05/16 05:59:21;;;;;;;;;;;;;;;;;;6182693;23;19900;-69
2022/05/16 06:01:47;;;;;;;;;;;;;;;;;;6182284;23;19901;-69
2022/05/16 06:04:13;;;;;;;;;;;;;;;;;;6182390;23;19908;-69
2022/05/16 06:06:40;;;;;;;;;;;;;;;;;;6156519;23;19959;-68
2022/05/16 06:09:06;;;;;;;;;;;;;;;;;;6181481;23;19901;-69
2022/05/16 06:11:32;;;;;;;;;;;;;;;;;;6182485;23;19906;-68
2022/05/16 06:13:58;;;;;;;;;;;;;;;;;;6182374;23;19907;-69
2022/05/16 06:16:24;;;;;;;;;;;;;;;;;;6156228;23;19904;-68
2022/05/16 06:18:50;;;;;;;;;;;;;;;;;;6155313;23;20225;-69
2022/05/16 06:21:16;;;;;;;;;;;;;;;;;;6181779;23;19955;-69
2022/05/16 06:23:41;;;;;;;;;;;;;;;;;;6181700;23;19992;-69
2022/05/16 06:26:07;;;;;;;;;;;;;;;;;;6181731;23;19908;-71
2022/05/16 06:28:38;;;;;;;;;;;;;;;;;;6183061;23;19904;-70
2022/05/16 06:31:04;;;;;;;;;;;;;;;;;;6155177;23;20336;-69
2022/05/16 06:33:30;;;;;;;;;;;;;;;;;;6184322;23;19977;-69
2022/05/16 06:35:56;;;;;;;;;;;;;;;;;;6183217;23;19955;-69
2022/05/16 06:38:22;;;;;;;;;;;;;;;;;;6181780;23;19928;-69
2022/05/16 06:40:48;;;;;;;;;;;;;;;;;;6182204;23;19900;-69
2022/05/16 06:43:14;;;;;;;;;;;;;;;;;;6182781;23;19935;-69
2022/05/16 06:45:39;;;;;;;;;;;;;;;;;;6155522;23;20266;-70
2022/05/16 06:48:05;;;;;;;;;;;;;;;;;;6181533;23;19911;-69
2022/05/16 06:50:31;;;;;;;;;;;;;;;;;;6181845;23;20234;-69
2022/05/16 06:52:57;;;;;;;;;;;;;;;;;;6182861;23;19900;-70
2022/05/16 06:55:23;;;;;;;;;;;;;;;;;;6182139;23;19950;-70
2022/05/16 06:57:49;;;;;;;;;;;;;;;;;;6181685;23;19976;-70
2022/05/16 07:00:15;;;;;;;;;;;;;;;;;;6181629;23;19996;-69
2022/05/16 07:02:41;;;;;;;;;;;;;;;;;;6184526;23;19915;-70
2022/05/16 07:05:07;;;;;;;;;;;;;;;;;;6157618;23;20341;-69
2022/05/16 07:07:33;;;;;;;;;;;;;;;;;;6155365;23;20015;-70
2022/05/16 07:09:59;;;;;;;;;;;;;;;;;;6181776;23;19900;-68
2022/05/16 07:12:25;;;;;;;;;;;;;;;;;;6181829;23;19904;-69
2022/05/16 07:14:51;;;;;;;;;;;;;;;;;;6182280;23;19900;-70
2022/05/16 07:17:17;;;;;;;;;;;;;;;;;;6182285;23;20325;-69
2022/05/16 07:19:43;;;;;;;;;;;;;;;;;;6181529;23;19951;-71
2022/05/16 07:22:09;;;;;;;;;;;;;;;;;;6154967;23;20208;-70
2022/05/16 07:24:35;;;;;;;;;;;;;;;;;;6155659;23;19928;-69
2022/05/16 07:29:45;;;;;;;;;;;;;;;;;;6181297;23;19911;-70
2022/05/16 07:32:11;;;;;;;;;;;;;;;;;;6154672;23;19963;-68
2022/05/16 07:34:37;;;;;;;;;;;;;;;;;;6183242;23;19900;-69
2022/05/16 07:37:03;;;;;;;;;;;;;;;;;;6157104;23;20327;-69
2022/05/16 07:39:29;;;;;;;;;;;;;;;;;;6183479;23;19900;-69
2022/05/16 07:41:55;;;;;;;;;;;;;;;;;;6157200;23;19913;-69
2022/05/16 07:44:21;;;;;;;;;;;;;;;;;;6184203;23;19908;-69
2022/05/16 07:46:47;;;;;;;;;;;;;;;;;;6183515;23;19909;-67
2022/05/16 07:49:13;;;;;;;;;;;;;;;;;;6183648;23;19904;-70
2022/05/16 07:51:39;;;;;;;;;;;;;;;;;;6157121;23;19912;-70
2022/05/16 07:54:05;;;;;;;;;;;;;;;;;;6157899;23;19930;-69
2022/05/16 07:56:32;;;;;;;;;;;;;;;;;;6183484;23;19900;-69
2022/05/16 07:58:58;;;;;;;;;;;;;;;;;;6183269;23;19928;-69
2022/05/16 08:01:25;;;;;;;;;;;;;;;;;;6183800;23;19915;-69
2022/05/16 08:03:51;;;;;;;;;;;;;;;;;;6157446;23;20274;-69
2022/05/16 08:06:16;;;;;;;;;;;;;;;;;;6182379;23;19912;-71
2022/05/16 08:11:27;;;;;;;;;;;;;;;;;;6183368;23;19911;-69
2022/05/16 08:13:53;;;;;;;;;;;;;;;;;;6184058;23;19904;-70
2022/05/16 08:16:19;;;;;;;;;;;;;;;;;;6183371;23;19907;-69
2022/05/16 08:18:45;;;;;;;;;;;;;;;;;;6183364;23;20023;-69
2022/05/16 08:21:11;;;;;;;;;;;;;;;;;;6156603;23;19939;-69
2022/05/16 08:23:37;;;;;;;;;;;;;;;;;;6156811;23;20285;-69
2022/05/16 08:26:04;;;;;;;;;;;;;;;;;;6184042;23;19916;-70
2022/05/16 08:28:30;;;;;;;;;;;;;;;;;;6183277;23;19904;-70
2022/05/16 08:30:56;;;;;;;;;;;;;;;;;;6183993;23;20333;-69
2022/05/16 08:33:21;;;;;;;;;;;;;;;;;;6183963;23;19904;-69
2022/05/16 08:39:52;;;;;;;;;;;;;;;;;;6183462;23;19915;-70
2022/05/16 08:41:18;;;;;;;;;;;;;;;;;;6182876;23;19915;-70
2022/05/16 08:43:44;;;;;;;;;;;;;;;;;;6182775;23;20235;-70
2022/05/16 08:46:10;;;;;;;;;;;;;;;;;;6183024;23;19908;-70
2022/05/16 08:48:36;;;;;;;;;;;;;;;;;;6182354;23;19901;-71
2022/05/16 08:51:05;;;;;;;;;;;;;;;;;;6183227;23;19904;-69
2022/05/16 08:53:31;;;;;;;;;;;;;;;;;;6156011;23;19908;-69
2022/05/16 08:55:57;;;;;;;;;;;;;;;;;;6157365;23;19978;-69
2022/05/16 08:58:23;;;;;;;;;;;;;;;;;;6182430;23;20345;-69
2022/05/16 09:00:49;;;;;;;;;;;;;;;;;;6182857;23;19907;-69
2022/05/16 09:03:15;;;;;;;;;;;;;;;;;;6156321;23;19900;-69
2022/05/16 09:05:41;;;;;;;;;;;;;;;;;;6156811;23;19900;-69
2022/05/16 09:08:07;;;;;;;;;;;;;;;;;;6182303;23;19904;-69
2022/05/16 09:10:32;;;;;;;;;;;;;;;;;;6183165;23;19900;-69
2022/05/16 09:12:59;;;;;;;;;;;;;;;;;;6183204;23;19900;-69
2022/05/16 09:15:26;;;;;;;;;;;;;;;;;;6183570;23;19990;-69
2022/05/16 09:17:51;;;;;;;;;;;;;;;;;;6181183;23;19900;-70
2022/05/16 09:20:17;;;;;;;;;;;;;;;;;;6182113;23;19900;-69
2022/05/16 09:25:28;;;;;;;;;;;;;;;;;;6161453;23;19927;-65
2022/05/16 09:30:38;;;;;;;;;;;;;;;;;;6153148;23;20231;-65
2022/05/16 09:33:05;;;;;;;;;;;;;;;;;;6153158;23;19955;-64
2022/05/16 09:35:31;;;;;;;;;;;;;;;;;;6151724;23;19935;-65
2022/05/16 09:37:57;;;;;;;;;;;;;;;;;;6150559;23;19904;-65
2022/05/16 09:40:23;;;;;;;;;;;;;;;;;;6153156;23;20315;-66
2022/05/16 09:42:50;;;;;;;;;;;;;;;;;;6151084;23;19900;-65
2022/05/16 09:45:16;;;;;;;;;;;;;;;;;;6151438;23;19908;-65
2022/05/16 09:47:42;;;;;;;;;;;;;;;;;;6152674;23;20190;-65
2022/05/16 09:50:08;;;;;;;;;;;;;;;;;;6152667;23;19930;-66
2022/05/16 09:52:34;;;;;;;;;;;;;;;;;;6151622;23;20334;-65
2022/05/16 09:55:00;;;;;;;;;;;;;;;;;;6152775;23;19939;-66
2022/05/16 09:57:25;;;;;;;;;;;;;;;;;;6152667;23;19911;-65
2022/05/16 09:59:51;;;;;;;;;;;;;;;;;;6152300;23;20300;-65
2022/05/16 10:02:17;;;;;;;;;;;;;;;;;;6151566;23;19904;-65
2022/05/16 10:04:43;;;;;;;;;;;;;;;;;;6151200;23;19900;-66
2022/05/16 10:07:09;;;;;;;;;;;;;;;;;;6152484;23;19908;-65
2022/05/16 10:09:36;;;;;;;;;;;;;;;;;;6152227;23;19987;-65
2022/05/16 10:12:02;;;;;;;;;;;;;;;;;;6153372;23;19936;-65
2022/05/16 10:14:28;;;;;;;;;;;;;;;;;;6153045;23;19908;-65
2022/05/16 10:16:54;;;;;;;;;;;;;;;;;;6152529;23;20304;-65
2022/05/16 10:19:20;;;;;;;;;;;;;;;;;;6150570;23;19901;-65
2022/05/16 10:21:46;;;;;;;;;;;;;;;;;;6151513;23;20414;-65
2022/05/16 10:24:12;;;;;;;;;;;;;;;;;;6158471;23;20317;-65
2022/05/16 10:26:39;;;;;;;;;;;;;;;;;;6155049;23;19912;-65
2022/05/16 10:29:08;;;;;;;;;;;;;;;;;;6155166;23;20333;-65
2022/05/16 10:34:19;;;;;;;;;;;;;;;;;;6182482;23;19993;-64
2022/05/16 10:36:45;;;;;;;;;;;;;;;;;;6155460;23;19904;-65
2022/05/16 10:39:15;;;;;;;;;;;;;;;;;;6180553;23;19908;-65
2022/05/16 10:41:41;;;;;;;;;;;;;;;;;;6183093;23;20000;-65
2022/05/16 10:44:08;;;;;;;;;;;;;;;;;;6182196;23;19935;-66
2022/05/16 10:46:34;;;;;;;;;;;;;;;;;;6155354;23;19908;-65
2022/05/16 10:49:00;;;;;;;;;;;;;;;;;;6181418;23;20218;-65
2022/05/16 10:51:26;;;;;;;;;;;;;;;;;;6181238;23;19900;-65
2022/05/16 10:53:52;;;;;;;;;;;;;;;;;;6181358;23;19907;-65
2022/05/16 10:56:18;;;;;;;;;;;;;;;;;;6155569;23;19904;-65
2022/05/16 10:58:44;;;;;;;;;;;;;;;;;;6181438;23;19954;-66
2022/05/16 11:01:11;;;;;;;;;;;;;;;;;;6154516;23;19907;-65
2022/05/16 11:03:37;;;;;;;;;;;;;;;;;;6155984;23;19947;-65
2022/05/16 11:06:03;;;;;;;;;;;;;;;;;;6155326;23;19994;-65
2022/05/16 11:08:29;;;;;;;;;;;;;;;;;;6152635;23;19979;-65
2022/05/16 11:10:55;;;;;;;;;;;;;;;;;;6182264;23;19999;-65
2022/05/16 11:13:21;;;;;;;;;;;;;;;;;;6182377;23;20524;-65
2022/05/16 11:15:47;;;;;;;;;;;;;;;;;;6155579;23;20389;-65
2022/05/16 11:18:12;;;;;;;;;;;;;;;;;;6181158;23;19911;-65
2022/05/16 11:20:39;;;;;;;;;;;;;;;;;;6181816;23;20402;-65
2022/05/16 11:23:05;;;;;;;;;;;;;;;;;;6181622;23;19907;-65
2022/05/16 11:25:31;;;;;;;;;;;;;;;;;;6155249;23;19908;-65
2022/05/16 11:27:58;;;;;;;;;;;;;;;;;;6182071;23;19915;-65
2022/05/16 11:30:23;;;;;;;;;;;;;;;;;;6155302;23;19979;-65
2022/05/16 11:32:49;;;;;;;;;;;;;;;;;;6181620;23;20146;-65
2022/05/16 11:35:15;;;;;;;;;;;;;;;;;;6180751;23;19947;-66
2022/05/16 11:37:41;;;;;;;;;;;;;;;;;;6181515;23;19904;-66
2022/05/16 11:40:07;;;;;;;;;;;;;;;;;;6180930;23;19942;-65
2022/05/16 11:42:33;;;;;;;;;;;;;;;;;;6182362;23;19946;-65
2022/05/16 11:44:59;;;;;;;;;;;;;;;;;;6182055;23;19979;-65
2022/05/16 11:47:25;;;;;;;;;;;;;;;;;;6181909;23;19994;-65
2022/05/16 11:49:51;;;;;;;;;;;;;;;;;;6181575;23;19904;-66
2022/05/16 11:52:17;;;;;;;;;;;;;;;;;;6181660;23;19908;-65
2022/05/16 11:54:44;;;;;;;;;;;;;;;;;;6181319;23;19961;-66
2022/05/16 12:02:33;;;;;;;;;;;;;;;;;;6181733;23;19908;-65
2022/05/16 12:04:59;;;;;;;;;;;;;;;;;;6155176;23;19900;-65
2022/05/16 12:07:25;;;;;;;;;;;;;;;;;;6182045;23;20238;-65
2022/05/16 12:09:51;;;;;;;;;;;;;;;;;;6179763;23;19900;-66
2022/05/16 12:12:17;;;;;;;;;;;;;;;;;;6181796;23;19963;-66
2022/05/16 12:14:43;;;;;;;;;;;;;;;;;;6181974;23;19911;-66
2022/05/16 12:17:09;;;;;;;;;;;;;;;;;;6181437;23;19900;-66
2022/05/16 12:19:37;;;;;;;;;;;;;;;;;;6154560;23;19904;-66
2022/05/16 12:22:03;;;;;;;;;;;;;;;;;;6157363;23;19900;-66
2022/05/16 12:24:30;;;;;;;;;;;;;;;;;;6156544;23;19954;-65
2022/05/16 12:26:57;;;;;;;;;;;;;;;;;;6156739;23;19915;-66
2022/05/16 12:29:23;;;;;;;;;;;;;;;;;;6156131;23;20460;-66
2022/05/16 12:31:49;;;;;;;;;;;;;;;;;;6183251;23;19908;-66
2022/05/16 12:34:15;;;;;;;;;;;;;;;;;;6183607;23;19900;-67
2022/05/16 12:36:40;;;;;;;;;;;;;;;;;;6183497;23;20299;-66
2022/05/16 12:39:07;;;;;;;;;;;;;;;;;;6181671;23;19900;-67
2022/05/16 12:41:39;;;;;;;;;;;;;;;;;;6183955;23;19907;-66
2022/05/16 12:44:06;;;;;;;;;;;;;;;;;;6155766;23;19901;-67
2022/05/16 12:46:32;;;;;;;;;;;;;;;;;;6156523;23;19915;-67
2022/05/16 12:48:58;;;;;;;;;;;;;;;;;;6181934;23;19904;-66
2022/05/16 12:51:24;;;;;;;;;;;;;;;;;;6183179;23;19908;-66
2022/05/16 12:53:49;;;;;;;;;;;;;;;;;;6182434;23;19901;-66
2022/05/16 12:56:15;;;;;;;;;;;;;;;;;;6183505;23;19900;-66
2022/05/16 12:58:41;;;;;;;;;;;;;;;;;;6182444;23;19987;-67
2022/05/16 13:01:07;;;;;;;;;;;;;;;;;;6156417;23;20314;-66
2022/05/16 13:03:38;;;;;;;;;;;;;;;;;;6156886;23;19900;-66
2022/05/16 13:06:04;;;;;;;;;;;;;;;;;;6183595;23;19991;-67
2022/05/16 13:08:31;;;;;;;;;;;;;;;;;;6156384;23;20313;-66
2022/05/16 13:10:57;;;;;;;;;;;;;;;;;;6182611;23;19904;-66
2022/05/16 13:13:22;;;;;;;;;;;;;;;;;;6182700;23;19907;-66
2022/05/16 13:15:48;;;;;;;;;;;;;;;;;;6156806;23;19904;-66
2022/05/16 13:18:14;;;;;;;;;;;;;;;;;;6182186;23;19962;-66
2022/05/16 13:20:40;;;;;;;;;;;;;;;;;;6181668;23;19901;-66
2022/05/16 13:23:06;;;;;;;;;;;;;;;;;;6183283;23;19900;-67
2022/05/16 13:29:21;;;;;;;;;;;;;;;;;;6182626;23;20318;-66
2022/05/16 13:31:02;;;;;;;;;;;;;;;;;;6182478;23;20763;-66
2022/05/16 13:33:28;;;;;;;;;;;;;;;;;;6182595;23;19905;-67
2022/05/16 13:35:54;;;;;;;;;;;;;;;;;;6156498;23;19900;-66
2022/05/16 13:38:20;;;;;;;;;;;;;;;;;;6182109;23;19901;-67
2022/05/16 13:40:47;;;;;;;;;;;;;;;;;;6155801;23;19936;-67
2022/05/16 13:43:14;;;;;;;;;;;;;;;;;;6183025;23;19900;-69
2022/05/16 13:45:40;;;;;;;;;;;;;;;;;;6157747;23;19908;-69
2022/05/16 13:48:07;;;;;;;;;;;;;;;;;;6186104;23;19935;-69
2022/05/16 13:50:33;;;;;;;;;;;;;;;;;;6159534;23;20286;-68
2022/05/16 13:52:59;;;;;;;;;;;;;;;;;;6185101;23;19954;-69
2022/05/16 13:55:25;;;;;;;;;;;;;;;;;;6156487;23;19900;-69
2022/05/16 13:57:51;;;;;;;;;;;;;;;;;;6182891;23;20374;-69
2022/05/16 14:00:17;;;;;;;;;;;;;;;;;;6181811;23;20235;-68
2022/05/16 14:02:43;;;;;;;;;;;;;;;;;;6182952;23;19901;-69
2022/05/16 14:05:10;;;;;;;;;;;;;;;;;;6184028;23;19900;-69
2022/05/16 14:07:36;;;;;;;;;;;;;;;;;;6182494;23;19908;-68
2022/05/16 14:10:02;;;;;;;;;;;;;;;;;;6181499;23;19963;-69
2022/05/16 14:12:28;;;;;;;;;;;;;;;;;;6182887;23;19982;-68
2022/05/16 14:14:54;;;;;;;;;;;;;;;;;;6182865;23;19927;-69
2022/05/16 14:17:20;;;;;;;;;;;;;;;;;;6182508;23;19900;-68
2022/05/16 14:19:46;;;;;;;;;;;;;;;;;;6154868;23;19955;-69
2022/05/16 14:22:12;;;;;;;;;;;;;;;;;;6182302;23;19911;-68
2022/05/16 14:24:38;;;;;;;;;;;;;;;;;;6181932;23;19986;-68
2022/05/16 14:27:04;;;;;;;;;;;;;;;;;;6182416;23;20319;-68
2022/05/16 14:29:30;;;;;;;;;;;;;;;;;;6182483;23;20019;-68
2022/05/16 14:31:56;;;;;;;;;;;;;;;;;;6182714;23;19900;-68
2022/05/16 14:34:22;;;;;;;;;;;;;;;;;;6182661;23;19955;-68
2022/05/16 14:36:48;;;;;;;;;;;;;;;;;;6181732;23;19955;-69
2022/05/16 14:39:14;;;;;;;;;;;;;;;;;;6155064;23;19978;-69
2022/05/16 14:41:39;;;;;;;;;;;;;;;;;;6155547;23;19986;-68
2022/05/16 14:44:05;;;;;;;;;;;;;;;;;;6181883;23;20330;-68
2022/05/16 14:46:44;;;;;;;;;;;;;;;;;;6155771;23;19912;-68
2022/05/16 14:49:10;;;;;;;;;;;;;;;;;;6154707;23;20031;-68
2022/05/16 14:51:38;;;;;;;;;;;;;;;;;;6182018;23;19906;-68
2022/05/16 14:54:04;;;;;;;;;;;;;;;;;;6182355;23;19904;-68
2022/05/16 14:56:30;;;;;;;;;;;;;;;;;;6181363;23;19911;-68
2022/05/16 14:58:56;;;;;;;;;;;;;;;;;;6181890;23;19974;-68
2022/05/16 15:04:07;;;;;;;;;;;;;;;;;;6182309;23;19907;-68
2022/05/16 15:06:33;;;;;;;;;;;;;;;;;;6181482;23;19994;-68
2022/05/16 15:08:59;;;;;;;;;;;;;;;;;;6181422;23;19901;-68
2022/05/16 15:11:25;;;;;;;;;;;;;;;;;;6181114;23;19937;-68
2022/05/16 15:13:51;;;;;;;;;;;;;;;;;;6182388;23;20019;-68
2022/05/16 15:16:17;;;;;;;;;;;;;;;;;;6181507;23;19900;-68
2022/05/16 15:18:43;;;;;;;;;;;;;;;;;;6181522;23;19900;-69
2022/05/16 15:21:09;;;;;;;;;;;;;;;;;;6182035;23;19928;-68
2022/05/16 15:23:34;;;;;;;;;;;;;;;;;;6182269;23;19979;-68
2022/05/16 15:26:00;;;;;;;;;;;;;;;;;;6181034;23;19916;-68
2022/05/16 15:28:26;;;;;;;;;;;;;;;;;;6154663;23;20226;-68
2022/05/16 15:30:52;;;;;;;;;;;;;;;;;;6181789;23;19908;-68
2022/05/16 15:33:20;;;;;;;;;;;;;;;;;;6155585;23;19911;-67
2022/05/16 15:35:45;;;;;;;;;;;;;;;;;;6182410;23;19928;-68
2022/05/16 15:38:11;;;;;;;;;;;;;;;;;;6179695;23;19908;-68
2022/05/16 15:40:38;;;;;;;;;;;;;;;;;;6181477;23;19947;-68
2022/05/16 15:43:04;;;;;;;;;;;;;;;;;;6181817;23;19900;-68
2022/05/16 15:45:30;;;;;;;;;;;;;;;;;;6181211;23;19900;-68
2022/05/16 15:47:57;;;;;;;;;;;;;;;;;;6181680;23;19908;-67
2022/05/16 15:50:22;;;;;;;;;;;;;;;;;;6181865;23;19900;-68
2022/05/16 15:52:48;;;;;;;;;;;;;;;;;;6182234;23;19998;-68
2022/05/16 15:55:14;;;;;;;;;;;;;;;;;;6181963;23;19907;-68
2022/05/16 15:57:40;;;;;;;;;;;;;;;;;;6183431;23;20327;-67
2022/05/16 16:00:06;;;;;;;;;;;;;;;;;;6182950;23;19939;-68
2022/05/16 16:02:32;;;;;;;;;;;;;;;;;;6183590;23;20082;-68
2022/05/16 16:13:12;;;;;;;;;;;;;;;;;;6185676;23;19928;-71
2022/05/16 16:15:38;;;;;;;;;;;;;;;;;;6157493;23;20376;-71
2022/05/16 16:18:04;;;;;;;;;;;;;;;;;;6155731;23;19982;-71
2022/05/16 16:20:30;;;;;;;;;;;;;;;;;;6156362;23;19904;-72
2022/05/16 16:22:56;;;;;;;;;;;;;;;;;;6182558;23;19908;-70
2022/05/16 16:25:25;;;;;;;;;;;;;;;;;;6157032;23;20200;-70
2022/05/16 16:27:52;;;;;;;;;;;;;;;;;;6182298;23;20311;-70
2022/05/16 16:30:20;;;;;;;;;;;;;;;;;;6182477;23;20204;-71
2022/05/16 16:32:47;;;;;;;;;;;;;;;;;;6183241;23;19931;-71
2022/05/16 16:35:14;;;;;;;;;;;;;;;;;;6183023;23;19956;-71
2022/05/16 16:37:40;;;;;;;;;;;;;;;;;;6156734;23;19904;-72
2022/05/16 16:40:06;;;;;;;;;;;;;;;;;;6182841;23;19904;-72
2022/05/16 16:42:32;;;;;;;;;;;;;;;;;;6182492;23;20274;-72
2022/05/16 16:44:59;;;;;;;;;;;;;;;;;;6183116;23;19935;-72
2022/05/16 16:47:25;;;;;;;;;;;;;;;;;;6156637;23;19908;-72
2022/05/16 16:49:51;;;;;;;;;;;;;;;;;;6182227;23;19963;-73
2022/05/16 16:57:46;;;;;;;;;;;;;;;;;;6181657;23;20261;-72
2022/05/16 17:00:13;;;;;;;;;;;;;;;;;;6180535;23;19939;-74
2022/05/16 17:02:39;;;;;;;;;;;;;;;;;;6182712;23;19935;-72
2022/05/16 17:05:05;;;;;;;;;;;;;;;;;;6182701;23;19907;-72
2022/05/16 17:07:32;;;;;;;;;;;;;;;;;;6183121;23;19908;-72
2022/05/16 17:09:59;;;;;;;;;;;;;;;;;;6183077;23;19987;-72
2022/05/16 17:12:25;;;;;;;;;;;;;;;;;;6181958;23;19983;-72
2022/05/16 17:14:51;;;;;;;;;;;;;;;;;;6182169;23;19976;-73
2022/05/16 17:17:17;;;;;;;;;;;;;;;;;;6183560;23;19906;-72
2022/05/16 17:19:43;;;;;;;;;;;;;;;;;;6182640;23;19947;-72
2022/05/16 17:22:09;;;;;;;;;;;;;;;;;;6156759;23;19975;-72
2022/05/16 17:24:35;;;;;;;;;;;;;;;;;;6182183;23;19900;-72
2022/05/16 17:27:01;;;;;;;;;;;;;;;;;;6181979;23;19943;-72
2022/05/16 17:29:27;;;;;;;;;;;;;;;;;;6180944;23;19962;-72
2022/05/16 17:31:53;;;;;;;;;;;;;;;;;;6183071;23;19928;-72
2022/05/16 17:34:22;;;;;;;;;;;;;;;;;;6182390;23;20302;-72
2022/05/16 17:36:50;;;;;;;;;;;;;;;;;;6181645;23;19900;-72
2022/05/16 17:39:16;;;;;;;;;;;;;;;;;;6181723;23;19926;-72
2022/05/16 17:41:45;;;;;;;;;;;;;;;;;;6182759;23;19900;-73
2022/05/16 17:44:12;;;;;;;;;;;;;;;;;;6182426;23;19928;-73
2022/05/16 17:46:38;;;;;;;;;;;;;;;;;;6182296;23;19908;-72
2022/05/16 17:49:04;;;;;;;;;;;;;;;;;;6181020;23;19907;-72
2022/05/16 17:51:30;;;;;;;;;;;;;;;;;;6181269;23;19908;-72